createdAt,value
2018-08-19T00:07:44.299Z,100852.88
2018-08-19T00:17:48.149Z,100852.88
2018-08-19T00:27:51.285Z,100838.64
2018-08-19T00:37:55.158Z,100842.02
2018-08-19T00:47:58.844Z,100853.22
2018-08-19T00:58:01.882Z,100849.21
2018-08-19T01:08:05.129Z,100855.55
2018-08-19T01:18:08.549Z,100856.88
2018-08-19T01:28:11.706Z,100858.47
2018-08-19T01:38:14.879Z,100857.84
2018-08-19T01:48:18.775Z,100855.41
2018-08-19T01:58:22.415Z,100864.17
2018-08-19T02:08:25.985Z,100865.51
2018-08-19T02:18:30.549Z,100866.49
2018-08-19T02:28:33.927Z,100858.59
2018-08-19T02:38:38.280Z,100852.98
2018-08-19T02:48:46.058Z,100846.30
2018-08-19T02:58:49.621Z,100836.94
2018-08-19T03:08:59.874Z,100821.62
2018-08-19T03:19:03.327Z,100831.59
2018-08-19T03:29:14.579Z,100822.12
2018-08-19T03:39:18.139Z,100817.16
2018-08-19T03:49:22.641Z,100808.86
2018-08-19T03:59:26.511Z,100804.84
2018-08-19T04:09:29.655Z,100812.39
2018-08-19T04:19:33.979Z,100818.60
2018-08-19T04:29:38.142Z,100815.83
2018-08-19T04:39:42.489Z,100814.20
2018-08-19T04:49:45.458Z,100827.33
2018-08-19T04:59:49.685Z,100834.65
2018-08-19T05:09:52.825Z,100831.23
2018-08-19T05:20:11.388Z,100820.67
2018-08-19T05:30:14.379Z,100845.70
2018-08-19T05:40:18.290Z,100857.73
2018-08-19T05:50:21.794Z,100848.72
2018-08-19T06:00:28.174Z,100853.72
2018-08-19T06:10:31.987Z,100854.81
2018-08-19T06:20:35.905Z,100873.09
2018-08-19T06:30:38.997Z,100870.94
2018-08-19T06:40:42.253Z,100869.53
2018-08-19T06:50:45.255Z,100873.33
2018-08-19T07:00:48.428Z,100862.56
2018-08-19T07:10:51.596Z,100865.38
2018-08-19T07:20:54.799Z,100867.34
2018-08-19T07:30:57.833Z,100862.38
2018-08-19T07:41:00.958Z,100860.67
2018-08-19T07:51:04.180Z,100863.38
2018-08-19T08:01:07.261Z,100859.13
2018-08-19T08:11:10.386Z,100850.13
2018-08-19T08:21:14.898Z,100852.98
2018-08-19T08:31:17.952Z,100847.63
2018-08-19T08:41:21.023Z,100844.95
2018-08-19T08:51:24.186Z,100842.09
2018-08-19T09:01:27.323Z,100826.95
2018-08-19T09:11:30.504Z,100815.41
2018-08-19T09:21:33.558Z,100804.61
2018-08-19T09:31:36.622Z,100790.31
2018-08-19T09:41:39.746Z,100776.84
2018-08-19T09:51:42.835Z,100767.73
2018-08-19T10:01:47.025Z,100758.20
2018-08-19T10:11:50.149Z,100740.52
2018-08-19T10:21:53.497Z,100734.95
2018-08-19T10:31:59.014Z,100716.58
2018-08-19T10:42:20.238Z,100709.17
2018-08-19T10:52:26.813Z,100698.59
2018-08-19T11:02:30.010Z,100688.05
2018-08-19T11:12:33.210Z,100671.13
2018-08-19T11:22:36.245Z,100662.83
2018-08-19T11:32:39.513Z,100643.56
2018-08-19T11:42:42.579Z,100628.09
2018-08-19T11:52:49.894Z,100627.15
2018-08-19T12:02:52.910Z,100611.88
2018-08-19T12:12:56.185Z,100608.07
2018-08-19T12:22:59.291Z,100597.22
2018-08-19T12:33:14.058Z,100579.94
2018-08-19T12:43:17.185Z,100572.14
2018-08-19T12:53:20.654Z,100552.66
2018-08-19T13:03:26.407Z,100548.74
2018-08-19T13:13:29.464Z,100526.59
2018-08-19T13:23:32.754Z,100520.95
2018-08-19T13:33:35.961Z,100508.67
2018-08-19T13:43:39.148Z,100502.34
2018-08-19T13:53:42.748Z,100494.93
2018-08-19T14:03:45.785Z,100477.37
2018-08-19T14:13:48.993Z,100470.87
2018-08-19T14:23:52.080Z,100463.20
2018-08-19T14:33:55.297Z,100462.83
2018-08-19T14:44:02.532Z,100454.88
2018-08-19T14:54:20.313Z,100447.41
2018-08-19T15:04:23.534Z,100441.53
2018-08-19T15:14:26.566Z,100421.05
2018-08-19T15:24:29.757Z,100415.73
2018-08-19T15:34:32.233Z,100412.73
2018-08-19T15:44:34.739Z,100404.11
2018-08-19T15:54:37.426Z,100397.07
2018-08-19T16:04:39.936Z,100395.97
2018-08-19T16:14:42.342Z,100385.39
2018-08-19T16:24:44.777Z,100373.77
2018-08-19T16:34:47.154Z,100373.05
2018-08-19T16:44:49.729Z,100370.45
2018-08-19T16:54:51.918Z,100366.48
2018-08-19T17:04:54.278Z,100358.17
2018-08-19T17:14:56.895Z,100355.54
2018-08-19T17:25:00.026Z,100360.95
2018-08-19T17:35:03.006Z,100355.86
2018-08-19T17:45:06.101Z,100361.59
2018-08-19T17:55:10.939Z,100365.61
2018-08-19T18:05:13.370Z,100370.48
2018-08-19T18:15:16.069Z,100375.36
2018-08-19T18:25:18.480Z,100382.66
2018-08-19T18:35:21.813Z,100394.33
2018-08-19T18:45:24.537Z,100390.27
2018-08-19T18:55:27.237Z,100393.39
2018-08-19T19:05:30.423Z,100395.94
2018-08-19T19:15:36.857Z,100399.95
2018-08-19T19:25:40.980Z,100385.91
2018-08-19T19:35:43.549Z,100383.88
2018-08-19T19:45:53.675Z,100382.27
2018-08-19T19:56:01.521Z,100386.19
2018-08-19T20:06:04.494Z,100392.10
2018-08-19T20:16:07.027Z,100386.52
2018-08-19T20:26:10.144Z,100389.93
2018-08-19T20:36:12.831Z,100390.55
2018-08-19T20:46:16.244Z,100388.88
2018-08-19T20:56:18.739Z,100396.91
2018-08-19T21:16:31.589Z,100401.19
2018-08-19T21:26:35.025Z,100398.17
2018-08-19T21:36:37.600Z,100392.45
2018-08-19T21:46:40.240Z,100392.75
2018-08-19T21:56:43.336Z,100391.42
2018-08-19T22:06:45.743Z,100395.19
2018-08-19T22:16:48.997Z,100389.98
2018-08-19T22:26:52.061Z,100386.20
2018-08-19T22:36:55.117Z,100378.94
2018-08-19T22:46:58.262Z,100372.52
2018-08-19T22:57:01.542Z,100373.86
2018-08-19T23:07:04.241Z,100377.53
2018-08-19T23:17:07.003Z,100368.92
2018-08-19T23:27:09.404Z,100377.26
2018-08-19T23:37:12.016Z,100379.14
2018-08-19T23:47:16.927Z,100377.80
2018-08-19T23:57:19.560Z,100367.89
